Time;durP1;ratioP1;P1;durP2;ratioP2;P2;SDS_P1;SDS_P2;PMS_P1;PMS_P2;Temp;Humidity;BMP_temperature;BMP_pressure;BME280_temperature;BME280_humidity;BME280_pressure;Samples;Min_cycle;Max_cycle;Signal;HPM_P1;HPM_P2
2022/05/31 00:00:17;;;;;;;4.77;3.50;;;;;;;;;;5028469;28;20205;-74
2022/05/31 00:02:44;;;;;;;6.70;3.10;;;;;;;;;;5024996;28;20573;-74
2022/05/31 00:05:13;;;;;;;7.17;3.50;;;;;;;;;;5027449;28;20757;-75
2022/05/31 00:07:41;;;;;;;7.37;3.10;;;;;;;;;;5028837;28;20227;-74
2022/05/31 00:10:09;;;;;;;7.63;3.30;;;;;;;;;;5023929;28;20207;-74
2022/05/31 00:12:36;;;;;;;5.97;3.60;;;;;;;;;;5028776;28;20208;-74
2022/05/31 00:15:03;;;;;;;6.60;3.40;;;;;;;;;;5026571;28;20250;-74
2022/05/31 00:17:30;;;;;;;8.07;3.60;;;;;;;;;;5024659;28;20204;-74
2022/05/31 00:19:58;;;;;;;7.70;3.73;;;;;;;;;;5024398;28;20214;-74
2022/05/31 00:22:28;;;;;;;6.80;3.40;;;;;;;;;;5026850;28;20204;-74
2022/05/31 00:24:55;;;;;;;8.20;3.30;;;;;;;;;;5026009;28;20228;-75
2022/05/31 00:27:24;;;;;;;8.90;3.60;;;;;;;;;;5020442;28;20219;-75
2022/05/31 00:29:51;;;;;;;11.27;4.17;;;;;;;;;;5026299;28;20201;-74
2022/05/31 00:32:23;;;;;;;6.60;3.30;;;;;;;;;;5025221;28;20204;-75
2022/05/31 00:34:51;;;;;;;15.47;3.80;;;;;;;;;;5024109;28;20282;-75
2022/05/31 00:37:19;;;;;;;4.90;3.30;;;;;;;;;;5025214;28;20219;-74
2022/05/31 00:39:47;;;;;;;7.93;3.50;;;;;;;;;;5024146;28;20295;-74
2022/05/31 00:42:16;;;;;;;6.70;3.43;;;;;;;;;;5023531;28;20211;-74
2022/05/31 00:44:44;;;;;;;8.07;3.47;;;;;;;;;;5022202;28;20728;-74
2022/05/31 00:47:14;;;;;;;6.63;3.93;;;;;;;;;;5023874;28;20238;-74
2022/05/31 00:49:43;;;;;;;9.77;4.03;;;;;;;;;;5025701;28;20218;-74
2022/05/31 00:52:12;;;;;;;14.03;4.47;;;;;;;;;;5025720;28;20199;-74
2022/05/31 00:54:41;;;;;;;10.50;4.00;;;;;;;;;;5023095;28;20698;-74
2022/05/31 00:57:12;;;;;;;12.50;3.90;;;;;;;;;;5021083;28;20210;-74
2022/05/31 00:59:40;;;;;;;7.93;3.67;;;;;;;;;;5023100;28;20208;-73
2022/05/31 01:02:07;;;;;;;6.73;3.67;;;;;;;;;;5025824;28;20242;-73
2022/05/31 01:04:36;;;;;;;8.00;3.23;;;;;;;;;;5025883;28;20247;-73
2022/05/31 01:07:04;;;;;;;12.90;4.07;;;;;;;;;;5024656;28;20710;-73
2022/05/31 01:09:31;;;;;;;12.00;4.57;;;;;;;;;;5023260;28;20203;-73
2022/05/31 01:11:59;;;;;;;11.43;3.90;;;;;;;;;;5024200;28;20533;-73
2022/05/31 01:14:28;;;;;;;9.43;3.70;;;;;;;;;;5021690;28;20235;-73
2022/05/31 01:23:11;;;;;;;9.73;4.37;;;;;;;;;;5022201;28;20246;-73
2022/05/31 01:25:46;;;;;;;6.43;3.47;;;;;;;;;;5022371;28;20688;-74
2022/05/31 01:28:21;;;;;;;4.80;3.30;;;;;;;;;;5019645;28;20223;-73
2022/05/31 01:30:53;;;;;;;10.07;3.47;;;;;;;;;;5021039;28;20690;-73
2022/05/31 01:33:27;;;;;;;6.83;3.77;;;;;;;;;;5022157;28;20228;-73
2022/05/31 01:35:54;;;;;;;7.70;3.30;;;;;;;;;;5020358;28;20204;-74
2022/05/31 01:38:25;;;;;;;9.37;3.80;;;;;;;;;;5020936;28;20199;-73
2022/05/31 01:40:56;;;;;;;11.40;3.43;;;;;;;;;;5019885;28;20214;-73
2022/05/31 01:43:24;;;;;;;7.53;3.50;;;;;;;;;;5023373;28;20310;-73
2022/05/31 01:45:53;;;;;;;9.13;3.80;;;;;;;;;;5022666;28;20287;-74
2022/05/31 01:48:20;;;;;;;4.87;3.17;;;;;;;;;;5025382;28;20219;-74
2022/05/31 01:50:47;;;;;;;9.23;3.63;;;;;;;;;;5020386;28;20216;-73
2022/05/31 01:53:16;;;;;;;8.70;3.50;;;;;;;;;;5020434;28;20214;-73
2022/05/31 01:55:45;;;;;;;8.93;3.33;;;;;;;;;;5022092;28;20211;-74
2022/05/31 01:58:15;;;;;;;9.70;3.40;;;;;;;;;;5021509;28;20227;-74
2022/05/31 02:00:42;;;;;;;5.50;3.30;;;;;;;;;;5023559;28;20639;-73
2022/05/31 02:03:09;;;;;;;7.77;3.23;;;;;;;;;;5020425;28;20303;-74
2022/05/31 02:05:36;;;;;;;7.30;3.50;;;;;;;;;;5022006;28;20204;-74
2022/05/31 02:08:05;;;;;;;7.37;3.37;;;;;;;;;;5018018;28;20764;-73
2022/05/31 02:10:33;;;;;;;5.57;3.37;;;;;;;;;;5022349;28;20195;-74
2022/05/31 02:13:01;;;;;;;5.50;3.53;;;;;;;;;;5021588;28;20212;-74
2022/05/31 02:15:29;;;;;;;9.33;3.77;;;;;;;;;;5019263;28;20238;-73
2022/05/31 02:17:56;;;;;;;6.47;3.50;;;;;;;;;;5023147;28;20295;-73
2022/05/31 02:20:23;;;;;;;5.83;3.33;;;;;;;;;;5020306;28;20195;-73
2022/05/31 02:22:50;;;;;;;5.90;3.23;;;;;;;;;;5021646;28;20347;-73
2022/05/31 02:25:18;;;;;;;7.40;3.60;;;;;;;;;;5018763;28;20318;-73
2022/05/31 02:28:01;;;;;;;6.60;3.90;;;;;;;;;;5021062;28;20227;-73
2022/05/31 02:30:29;;;;;;;7.53;3.90;;;;;;;;;;5020582;28;20294;-73
2022/05/31 02:32:56;;;;;;;7.13;3.53;;;;;;;;;;5019886;28;20589;-73
2022/05/31 02:35:24;;;;;;;6.53;3.33;;;;;;;;;;5020361;28;20226;-73
2022/05/31 02:37:51;;;;;;;9.40;3.40;;;;;;;;;;5020159;28;20282;-73
2022/05/31 02:40:18;;;;;;;6.93;3.27;;;;;;;;;;5020586;28;20196;-73
2022/05/31 02:42:45;;;;;;;10.17;3.30;;;;;;;;;;5019242;28;20211;-73
2022/05/31 02:45:13;;;;;;;9.37;3.40;;;;;;;;;;5024962;28;20223;-72
2022/05/31 02:47:41;;;;;;;8.33;3.40;;;;;;;;;;5020475;28;20233;-73
2022/05/31 02:50:09;;;;;;;7.03;3.20;;;;;;;;;;5020232;28;20211;-74
2022/05/31 02:52:36;;;;;;;6.47;3.40;;;;;;;;;;5017897;28;20678;-74
2022/05/31 02:55:03;;;;;;;7.20;3.23;;;;;;;;;;5018736;28;20263;-73
2022/05/31 02:57:30;;;;;;;8.23;3.30;;;;;;;;;;5018032;28;20231;-74
2022/05/31 02:59:58;;;;;;;8.67;3.10;;;;;;;;;;5023065;28;20210;-74
2022/05/31 03:02:25;;;;;;;6.03;2.80;;;;;;;;;;5021492;28;20219;-75
2022/05/31 03:04:53;;;;;;;5.57;3.17;;;;;;;;;;5023004;28;20233;-75
2022/05/31 03:07:20;;;;;;;11.43;3.70;;;;;;;;;;5019356;28;20294;-74
2022/05/31 03:09:48;;;;;;;7.13;3.17;;;;;;;;;;5022056;28;20227;-75
2022/05/31 03:12:17;;;;;;;8.70;3.47;;;;;;;;;;5019838;28;20653;-74
2022/05/31 03:14:49;;;;;;;8.77;3.97;;;;;;;;;;5021864;28;20238;-73
2022/05/31 03:17:19;;;;;;;7.23;3.60;;;;;;;;;;5020831;28;20294;-73
2022/05/31 03:19:49;;;;;;;8.07;3.73;;;;;;;;;;5022560;28;20204;-73
2022/05/31 03:22:20;;;;;;;7.57;3.57;;;;;;;;;;5024115;28;20199;-73
2022/05/31 03:24:50;;;;;;;7.30;3.30;;;;;;;;;;5019875;28;20254;-73
2022/05/31 03:33:24;;;;;;;8.53;3.33;;;;;;;;;;5019168;28;20265;-73
2022/05/31 03:35:51;;;;;;;5.87;2.90;;;;;;;;;;5018071;28;20217;-73
2022/05/31 03:38:22;;;;;;;7.93;3.27;;;;;;;;;;5024681;28;20294;-74
2022/05/31 03:40:58;;;;;;;11.87;3.43;;;;;;;;;;5023861;28;20930;-73
2022/05/31 03:43:26;;;;;;;5.97;3.40;;;;;;;;;;5020977;28;20706;-74
2022/05/31 03:45:54;;;;;;;6.37;3.37;;;;;;;;;;5019060;28;20283;-74
2022/05/31 03:48:21;;;;;;;7.43;2.90;;;;;;;;;;5020018;28;20347;-74
2022/05/31 03:50:57;;;;;;;5.60;3.60;;;;;;;;;;5027480;28;20195;-74
2022/05/31 03:53:26;;;;;;;7.23;3.63;;;;;;;;;;5023816;28;20228;-74
2022/05/31 03:55:53;;;;;;;7.13;3.13;;;;;;;;;;5021481;28;20295;-74
2022/05/31 03:58:21;;;;;;;5.87;3.17;;;;;;;;;;5026010;28;20330;-74
2022/05/31 04:00:48;;;;;;;6.90;3.70;;;;;;;;;;5028085;28;20282;-74
2022/05/31 04:03:16;;;;;;;6.60;3.70;;;;;;;;;;5022712;28;20295;-74
2022/05/31 04:05:43;;;;;;;5.20;3.07;;;;;;;;;;5024338;28;20204;-74
2022/05/31 04:08:12;;;;;;;4.77;3.10;;;;;;;;;;5021558;28;20223;-74
2022/05/31 04:10:42;;;;;;;6.97;3.10;;;;;;;;;;5020615;28;20203;-74
2022/05/31 04:13:09;;;;;;;7.40;3.43;;;;;;;;;;5024345;28;20192;-75
2022/05/31 04:15:37;;;;;;;9.07;3.23;;;;;;;;;;5026197;28;20204;-74
2022/05/31 04:18:05;;;;;;;10.17;3.40;;;;;;;;;;5026252;28;20196;-74
2022/05/31 04:20:33;;;;;;;5.80;3.20;;;;;;;;;;5025224;28;20688;-74
2022/05/31 04:25:43;;;;;;;8.50;3.67;;;;;;;;;;5023468;28;20640;-74
2022/05/31 04:28:10;;;;;;;7.97;3.40;;;;;;;;;;5028295;28;20230;-74
2022/05/31 04:30:37;;;;;;;9.30;3.20;;;;;;;;;;5022005;28;20329;-74
2022/05/31 04:33:05;;;;;;;6.53;3.70;;;;;;;;;;5025841;28;20660;-74
2022/05/31 04:35:32;;;;;;;11.83;3.73;;;;;;;;;;5022679;28;20306;-73
2022/05/31 04:37:59;;;;;;;17.30;3.50;;;;;;;;;;5020264;28;20296;-74
2022/05/31 04:40:26;;;;;;;9.03;3.50;;;;;;;;;;5022098;28;20302;-74
2022/05/31 04:42:55;;;;;;;6.80;3.33;;;;;;;;;;5026046;28;20567;-73
2022/05/31 04:45:22;;;;;;;9.73;3.90;;;;;;;;;;5021833;28;20227;-74
2022/05/31 04:47:49;;;;;;;7.53;3.13;;;;;;;;;;5020823;28;20303;-73
2022/05/31 04:50:16;;;;;;;7.20;3.40;;;;;;;;;;5021369;28;20584;-73
2022/05/31 04:52:44;;;;;;;8.03;3.27;;;;;;;;;;5022870;28;20205;-73
2022/05/31 04:55:11;;;;;;;9.77;3.77;;;;;;;;;;5020917;28;20223;-73
2022/05/31 04:57:38;;;;;;;6.57;3.40;;;;;;;;;;5025774;28;20626;-73
2022/05/31 05:00:08;;;;;;;9.13;3.87;;;;;;;;;;5023452;28;20200;-73
2022/05/31 05:02:35;;;;;;;6.77;3.13;;;;;;;;;;5022861;28;20614;-74
2022/05/31 05:05:02;;;;;;;8.23;3.63;;;;;;;;;;5022658;28;20245;-73
2022/05/31 05:07:30;;;;;;;10.07;3.27;;;;;;;;;;5020111;28;20295;-74
2022/05/31 05:09:57;;;;;;;5.03;3.37;;;;;;;;;;5020003;28;20228;-74
2022/05/31 05:12:24;;;;;;;6.33;3.17;;;;;;;;;;5016796;28;20705;-74
2022/05/31 05:14:52;;;;;;;6.17;3.10;;;;;;;;;;5020842;28;20235;-74
2022/05/31 05:17:20;;;;;;;8.27;3.33;;;;;;;;;;5018372;28;20873;-72
2022/05/31 05:19:47;;;;;;;7.13;2.97;;;;;;;;;;5016288;28;20773;-72
2022/05/31 05:22:14;;;;;;;5.23;2.80;;;;;;;;;;5023446;28;20674;-74
2022/05/31 05:24:42;;;;;;;7.30;2.73;;;;;;;;;;5018167;28;20669;-74
2022/05/31 05:27:09;;;;;;;7.77;2.80;;;;;;;;;;5020377;28;20290;-73
2022/05/31 05:32:23;;;;;;;6.33;2.67;;;;;;;;;;5025584;28;20199;-73
2022/05/31 05:34:52;;;;;;;6.27;3.03;;;;;;;;;;5020597;28;20219;-73
2022/05/31 05:37:19;;;;;;;8.07;3.27;;;;;;;;;;5018405;28;20231;-73
2022/05/31 05:39:47;;;;;;;7.40;2.37;;;;;;;;;;5018108;28;20387;-73
2022/05/31 05:42:14;;;;;;;8.60;2.90;;;;;;;;;;5021039;28;20300;-73
2022/05/31 05:44:41;;;;;;;9.07;2.97;;;;;;;;;;5019840;28;20310;-73
2022/05/31 05:47:10;;;;;;;6.97;2.83;;;;;;;;;;5021326;28;20272;-73
2022/05/31 05:49:39;;;;;;;7.23;2.63;;;;;;;;;;5020008;28;20259;-73
2022/05/31 05:52:07;;;;;;;4.80;2.80;;;;;;;;;;5020789;28;20212;-73
2022/05/31 05:54:34;;;;;;;6.10;2.80;;;;;;;;;;5022675;28;20219;-73
2022/05/31 05:57:01;;;;;;;5.70;2.80;;;;;;;;;;5023805;28;20199;-74
2022/05/31 05:59:28;;;;;;;7.57;2.90;;;;;;;;;;5024448;28;20200;-74
2022/05/31 06:01:57;;;;;;;5.07;2.70;;;;;;;;;;5020786;28;20204;-74
2022/05/31 06:04:27;;;;;;;5.27;2.80;;;;;;;;;;5024824;28;20321;-74
2022/05/31 06:07:00;;;;;;;4.50;2.80;;;;;;;;;;5023661;28;20295;-74
2022/05/31 06:09:28;;;;;;;5.20;2.80;;;;;;;;;;5022418;28;20235;-73
2022/05/31 06:11:57;;;;;;;5.27;2.63;;;;;;;;;;5021405;28;20319;-74
2022/05/31 06:14:26;;;;;;;10.37;3.10;;;;;;;;;;5025533;28;20301;-74
2022/05/31 06:16:56;;;;;;;7.23;2.67;;;;;;;;;;5023854;28;20326;-73
2022/05/31 06:19:24;;;;;;;6.97;2.30;;;;;;;;;;5025689;28;20304;-73
2022/05/31 06:21:52;;;;;;;7.97;2.40;;;;;;;;;;5021868;28;20217;-73
2022/05/31 06:24:23;;;;;;;10.47;2.73;;;;;;;;;;5022571;28;20318;-73
2022/05/31 06:26:50;;;;;;;7.60;2.57;;;;;;;;;;5021791;28;20290;-73
2022/05/31 06:29:17;;;;;;;8.27;2.43;;;;;;;;;;5023768;28;20224;-73
2022/05/31 06:31:45;;;;;;;6.53;2.50;;;;;;;;;;5021448;28;20211;-73
2022/05/31 06:34:12;;;;;;;4.63;2.37;;;;;;;;;;5020610;28;20889;-73
2022/05/31 06:36:40;;;;;;;11.10;2.20;;;;;;;;;;5024211;28;20204;-73
2022/05/31 06:39:07;;;;;;;5.10;2.00;;;;;;;;;;5021842;28;20206;-73
2022/05/31 06:41:36;;;;;;;5.30;2.20;;;;;;;;;;5019740;28;20236;-74
2022/05/31 06:44:03;;;;;;;8.67;2.17;;;;;;;;;;5025734;28;20250;-73
2022/05/31 06:46:31;;;;;;;5.63;1.67;;;;;;;;;;5022319;28;20199;-74
2022/05/31 06:48:58;;;;;;;7.57;2.10;;;;;;;;;;5022009;28;20773;-74
2022/05/31 06:56:54;;;;;;;5.37;1.70;;;;;;;;;;5021799;28;20215;-74
2022/05/31 06:59:21;;;;;;;5.43;1.40;;;;;;;;;;5018069;28;20232;-72
2022/05/31 07:01:48;;;;;;;6.37;1.90;;;;;;;;;;5020494;28;20657;-73
2022/05/31 07:04:16;;;;;;;4.07;1.47;;;;;;;;;;5020927;28;20266;-74
2022/05/31 07:06:43;;;;;;;6.13;1.60;;;;;;;;;;5021442;28;20206;-73
2022/05/31 07:09:12;;;;;;;5.23;1.60;;;;;;;;;;5023296;28;20223;-74
2022/05/31 07:11:39;;;;;;;4.87;1.50;;;;;;;;;;5022299;28;20234;-74
2022/05/31 07:14:08;;;;;;;4.03;1.40;;;;;;;;;;5020064;28;20235;-74
2022/05/31 07:16:35;;;;;;;10.97;1.63;;;;;;;;;;5018570;28;20658;-74
2022/05/31 07:19:03;;;;;;;5.13;1.27;;;;;;;;;;5020752;28;20598;-74
2022/05/31 07:21:30;;;;;;;8.03;1.27;;;;;;;;;;5024061;28;20235;-74
2022/05/31 07:23:57;;;;;;;6.07;1.30;;;;;;;;;;5024497;28;20227;-73
2022/05/31 07:26:25;;;;;;;8.63;1.50;;;;;;;;;;5026055;28;20711;-74
2022/05/31 07:28:52;;;;;;;2.53;1.30;;;;;;;;;;5026948;28;20216;-73
2022/05/31 07:31:21;;;;;;;5.27;1.40;;;;;;;;;;5027935;28;20307;-73
2022/05/31 07:33:48;;;;;;;8.57;1.60;;;;;;;;;;5023528;28;20220;-74
2022/05/31 07:36:18;;;;;;;6.97;1.50;;;;;;;;;;5023998;28;20205;-74
2022/05/31 07:38:45;;;;;;;8.73;1.17;;;;;;;;;;5026695;28;20208;-73
2022/05/31 07:41:13;;;;;;;3.73;1.30;;;;;;;;;;5023193;28;20205;-74
2022/05/31 07:43:40;;;;;;;3.83;1.03;;;;;;;;;;5026466;28;20988;-72
2022/05/31 07:46:10;;;;;;;4.20;1.30;;;;;;;;;;5028681;28;20266;-73
2022/05/31 07:48:39;;;;;;;2.97;1.13;;;;;;;;;;5026513;28;20222;-73
2022/05/31 07:51:07;;;;;;;3.63;1.17;;;;;;;;;;5020977;28;20210;-75
2022/05/31 07:53:34;;;;;;;4.47;1.10;;;;;;;;;;5020882;28;20334;-74
2022/05/31 07:56:06;;;;;;;4.23;1.07;;;;;;;;;;5028729;28;20294;-74
2022/05/31 07:58:33;;;;;;;2.20;0.90;;;;;;;;;;5026180;28;20211;-73
2022/05/31 08:01:01;;;;;;;4.43;1.00;;;;;;;;;;5025411;28;20302;-75
2022/05/31 08:03:29;;;;;;;3.97;0.90;;;;;;;;;;5024956;28;20315;-73
2022/05/31 08:05:58;;;;;;;5.07;0.90;;;;;;;;;;5024824;28;20222;-73
2022/05/31 08:08:25;;;;;;;2.23;1.00;;;;;;;;;;5026775;28;20239;-74
2022/05/31 08:10:52;;;;;;;1.77;0.87;;;;;;;;;;5025040;28;20685;-73
2022/05/31 08:13:19;;;;;;;4.10;0.90;;;;;;;;;;5024402;28;20212;-74
2022/05/31 08:15:47;;;;;;;2.83;0.97;;;;;;;;;;5024591;28;20207;-74
2022/05/31 08:18:14;;;;;;;3.90;0.73;;;;;;;;;;5026624;28;20226;-74
2022/05/31 08:20:41;;;;;;;2.80;0.80;;;;;;;;;;5026701;28;20203;-74
2022/05/31 08:23:10;;;;;;;6.70;0.90;;;;;;;;;;5026337;28;20235;-75
2022/05/31 08:25:38;;;;;;;3.23;0.90;;;;;;;;;;5027722;28;20215;-74
2022/05/31 08:28:05;;;;;;;3.20;0.83;;;;;;;;;;5021636;28;20226;-73
2022/05/31 08:30:33;;;;;;;3.07;0.80;;;;;;;;;;5030221;28;20230;-74
2022/05/31 08:33:00;;;;;;;3.43;1.00;;;;;;;;;;5020282;28;20196;-74
2022/05/31 08:35:28;;;;;;;3.00;0.73;;;;;;;;;;5021328;28;20200;-73
2022/05/31 08:37:55;;;;;;;7.63;1.23;;;;;;;;;;5023967;28;20199;-74
2022/05/31 08:40:24;;;;;;;4.70;0.80;;;;;;;;;;5022230;28;21632;-74
2022/05/31 08:42:53;;;;;;;2.37;0.87;;;;;;;;;;5018036;28;20250;-74
2022/05/31 08:45:43;;;;;;;2.23;0.90;;;;;;;;;;5021589;28;20314;-73
2022/05/31 08:48:16;;;;;;;3.47;0.90;;;;;;;;;;5000293;28;20230;-74
2022/05/31 08:53:38;;;;;;;1.50;0.90;;;;;;;;;;5015596;28;20608;-74
2022/05/31 08:58:55;;;;;;;2.63;1.20;;;;;;;;;;5016910;28;20203;-74
2022/05/31 09:01:24;;;;;;;2.67;1.00;;;;;;;;;;5026091;28;20682;-73
2022/05/31 09:03:54;;;;;;;2.67;1.20;;;;;;;;;;5026753;28;20220;-74
2022/05/31 09:06:24;;;;;;;2.90;1.30;;;;;;;;;;5024203;28;20214;-74
2022/05/31 09:08:56;;;;;;;5.53;1.10;;;;;;;;;;5027586;28;20295;-74
2022/05/31 09:11:27;;;;;;;1.73;0.90;;;;;;;;;;5026470;28;20333;-73
2022/05/31 09:13:57;;;;;;;3.37;1.10;;;;;;;;;;5022931;28;20231;-73
2022/05/31 09:16:32;;;;;;;3.10;1.13;;;;;;;;;;5020906;28;20592;-74
2022/05/31 09:19:02;;;;;;;4.40;1.10;;;;;;;;;;5021996;28;20721;-75
2022/05/31 09:21:38;;;;;;;1.90;1.00;;;;;;;;;;5023420;28;20226;-75
2022/05/31 09:24:06;;;;;;;1.73;1.00;;;;;;;;;;5024531;28;20310;-75
2022/05/31 09:26:46;;;;;;;3.73;1.00;;;;;;;;;;5024725;28;20661;-74
2022/05/31 09:29:16;;;;;;;2.90;1.00;;;;;;;;;;5024113;28;20235;-74
2022/05/31 09:31:49;;;;;;;3.30;1.20;;;;;;;;;;5024276;28;20211;-75
2022/05/31 09:34:28;;;;;;;4.67;1.07;;;;;;;;;;5023904;28;20328;-75
2022/05/31 09:36:59;;;;;;;2.47;1.10;;;;;;;;;;5026868;28;20215;-74
2022/05/31 09:39:29;;;;;;;2.63;0.90;;;;;;;;;;5023362;28;20208;-75
2022/05/31 09:42:01;;;;;;;3.87;1.40;;;;;;;;;;5026491;28;20293;-74
2022/05/31 09:44:33;;;;;;;4.47;1.17;;;;;;;;;;5024530;28;20227;-74
2022/05/31 09:47:04;;;;;;;4.80;1.10;;;;;;;;;;5027497;28;20207;-74
2022/05/31 09:49:36;;;;;;;3.53;1.30;;;;;;;;;;5025235;28;20615;-74
2022/05/31 09:52:05;;;;;;;2.57;1.17;;;;;;;;;;5026859;28;20204;-74
2022/05/31 09:57:24;;;;;;;1.53;1.00;;;;;;;;;;5024664;28;20258;-73
2022/05/31 09:59:52;;;;;;;1.17;1.00;;;;;;;;;;5024564;28;20224;-75
2022/05/31 10:02:21;;;;;;;2.70;1.07;;;;;;;;;;5024989;28;20290;-75
2022/05/31 10:04:50;;;;;;;4.17;1.20;;;;;;;;;;5025094;28;20727;-74
2022/05/31 10:07:32;;;;;;;1.93;1.00;;;;;;;;;;5024291;28;20217;-75
2022/05/31 10:10:02;;;;;;;1.20;0.80;;;;;;;;;;5026238;28;20266;-73
2022/05/31 10:12:31;;;;;;;4.23;1.30;;;;;;;;;;5022805;28;20226;-74
2022/05/31 10:15:03;;;;;;;4.67;0.90;;;;;;;;;;5023443;28;20243;-74
2022/05/31 10:17:41;;;;;;;5.50;1.30;;;;;;;;;;5023927;28;20230;-74
2022/05/31 10:20:16;;;;;;;3.23;1.37;;;;;;;;;;5022550;28;20247;-75
2022/05/31 10:22:54;;;;;;;2.83;1.03;;;;;;;;;;5022883;28;20246;-75
2022/05/31 10:25:22;;;;;;;2.90;1.20;;;;;;;;;;5023627;28;20673;-74
2022/05/31 10:27:56;;;;;;;1.80;1.00;;;;;;;;;;5021323;28;20702;-74
2022/05/31 10:30:23;;;;;;;2.20;0.90;;;;;;;;;;5022958;28;20227;-74
2022/05/31 10:32:52;;;;;;;1.20;0.80;;;;;;;;;;5024259;28;20227;-74
2022/05/31 10:35:21;;;;;;;2.60;1.20;;;;;;;;;;5023734;28;20603;-73
2022/05/31 10:37:50;;;;;;;4.70;1.50;;;;;;;;;;5023078;28;20298;-74
2022/05/31 10:40:18;;;;;;;1.63;1.00;;;;;;;;;;5021140;28;20593;-74
2022/05/31 10:42:46;;;;;;;2.03;1.00;;;;;;;;;;5022521;28;20213;-74
2022/05/31 10:45:21;;;;;;;1.60;1.00;;;;;;;;;;5023579;28;20270;-75
2022/05/31 10:47:48;;;;;;;1.87;1.10;;;;;;;;;;5022568;28;20238;-75
2022/05/31 10:50:16;;;;;;;2.63;0.97;;;;;;;;;;5023335;28;20590;-74
2022/05/31 10:52:48;;;;;;;3.73;1.00;;;;;;;;;;5024766;28;20626;-74
2022/05/31 10:55:23;;;;;;;1.10;0.70;;;;;;;;;;5021319;28;20257;-74
2022/05/31 10:57:56;;;;;;;2.37;1.00;;;;;;;;;;5018618;28;20705;-75
2022/05/31 11:00:28;;;;;;;3.37;1.07;;;;;;;;;;5020509;28;20200;-74
2022/05/31 11:03:05;;;;;;;2.17;1.07;;;;;;;;;;5021638;28;20204;-74
2022/05/31 11:05:38;;;;;;;2.67;1.27;;;;;;;;;;5021772;28;20222;-74
2022/05/31 11:13:55;;;;;;;4.43;1.20;;;;;;;;;;5025366;28;20285;-74
2022/05/31 11:16:29;;;;;;;3.60;1.07;;;;;;;;;;5022729;28;20667;-75
2022/05/31 11:19:06;;;;;;;4.93;1.30;;;;;;;;;;5023790;28;20204;-74
2022/05/31 11:21:37;;;;;;;5.43;1.57;;;;;;;;;;5025966;28;20231;-74
2022/05/31 11:24:10;;;;;;;6.83;1.37;;;;;;;;;;5019916;28;20228;-75
2022/05/31 11:26:46;;;;;;;3.70;1.33;;;;;;;;;;5020449;28;20216;-75
2022/05/31 11:29:27;;;;;;;4.73;1.27;;;;;;;;;;5022123;28;20331;-75
2022/05/31 11:31:58;;;;;;;2.87;1.53;;;;;;;;;;5021890;28;20237;-75
2022/05/31 11:34:41;;;;;;;2.00;1.37;;;;;;;;;;5020313;28;20319;-74
2022/05/31 11:37:29;;;;;;;5.87;1.50;;;;;;;;;;5020592;28;20607;-75
2022/05/31 11:40:03;;;;;;;4.13;1.67;;;;;;;;;;5015633;28;20606;-74
2022/05/31 11:42:41;;;;;;;11.03;1.87;;;;;;;;;;5021759;28;20204;-74
2022/05/31 11:45:11;;;;;;;5.07;1.23;;;;;;;;;;5023669;28;20268;-75
2022/05/31 11:47:51;;;;;;;2.87;1.30;;;;;;;;;;5021460;28;20200;-75
2022/05/31 11:50:26;;;;;;;7.70;1.40;;;;;;;;;;5021786;28;20578;-76
2022/05/31 11:53:04;;;;;;;2.97;1.43;;;;;;;;;;5021057;28;20195;-75
2022/05/31 11:55:34;;;;;;;6.43;1.83;;;;;;;;;;5023686;28;20491;-75
2022/05/31 11:58:11;;;;;;;5.47;1.53;;;;;;;;;;5019338;28;20290;-73
2022/05/31 12:01:01;;;;;;;4.60;1.70;;;;;;;;;;5021435;28;20207;-73
2022/05/31 12:03:33;;;;;;;2.90;1.37;;;;;;;;;;5021932;28;20269;-74
2022/05/31 12:06:10;;;;;;;5.60;1.73;;;;;;;;;;5022904;28;20207;-74
2022/05/31 12:08:42;;;;;;;4.20;1.80;;;;;;;;;;5021692;28;20299;-74
2022/05/31 12:11:11;;;;;;;4.23;1.53;;;;;;;;;;5025838;28;20227;-73
2022/05/31 12:13:41;;;;;;;2.50;1.30;;;;;;;;;;5025248;28;20314;-73
2022/05/31 12:16:09;;;;;;;2.47;1.30;;;;;;;;;;5026270;28;20208;-74
2022/05/31 12:18:39;;;;;;;3.10;1.50;;;;;;;;;;5023859;28;20207;-73
2022/05/31 12:21:09;;;;;;;5.33;1.43;;;;;;;;;;5029704;28;20211;-75
2022/05/31 12:23:39;;;;;;;3.53;1.20;;;;;;;;;;5024187;28;20224;-74
2022/05/31 12:26:15;;;;;;;4.00;1.43;;;;;;;;;;5024918;28;20574;-74
2022/05/31 12:28:48;;;;;;;2.63;1.30;;;;;;;;;;5024473;28;20217;-74
2022/05/31 12:31:20;;;;;;;3.00;1.40;;;;;;;;;;5024887;28;20227;-74
2022/05/31 12:33:49;;;;;;;4.00;1.30;;;;;;;;;;5025443;28;20227;-73
2022/05/31 12:36:17;;;;;;;4.47;1.40;;;;;;;;;;5024382;28;20258;-74
2022/05/31 12:38:54;;;;;;;2.80;1.50;;;;;;;;;;5024818;28;20274;-74
2022/05/31 12:41:32;;;;;;;2.80;1.60;;;;;;;;;;5025234;28;20206;-73
2022/05/31 12:44:00;;;;;;;2.30;1.30;;;;;;;;;;5021064;28;20289;-74
2022/05/31 12:46:46;;;;;;;2.57;1.40;;;;;;;;;;5021036;28;20310;-74
2022/05/31 12:49:24;;;;;;;3.93;1.40;;;;;;;;;;5026130;28;20206;-74
2022/05/31 12:52:22;;;;;;;5.23;1.50;;;;;;;;;;5025076;28;20228;-74
2022/05/31 12:54:50;;;;;;;4.30;1.40;;;;;;;;;;5024761;28;20223;-75
2022/05/31 12:57:24;;;;;;;3.30;1.60;;;;;;;;;;5025372;28;20210;-72
2022/05/31 12:59:54;;;;;;;4.40;1.57;;;;;;;;;;5026543;28;20203;-73
2022/05/31 13:02:42;;;;;;;5.13;1.40;;;;;;;;;;5023057;28;20212;-72
2022/05/31 13:05:27;;;;;;;3.33;1.30;;;;;;;;;;5025121;28;20320;-72
2022/05/31 13:08:11;;;;;;;2.80;1.13;;;;;;;;;;5022782;28;20310;-73
2022/05/31 13:19:34;;;;;;;2.23;1.13;;;;;;;;;;5022235;28;20326;-74
2022/05/31 13:21:55;;;;;;;4.90;1.30;;;;;;;;;;5021768;28;20273;-72
2022/05/31 13:24:24;;;;;;;9.97;1.43;;;;;;;;;;5019867;28;20215;-73
2022/05/31 13:26:52;;;;;;;4.50;1.30;;;;;;;;;;5020583;28;20200;-72
2022/05/31 13:29:21;;;;;;;2.43;1.20;;;;;;;;;;5022358;28;20300;-73
2022/05/31 13:31:50;;;;;;;4.67;1.50;;;;;;;;;;5019513;28;20856;-73
2022/05/31 13:34:25;;;;;;;2.10;1.20;;;;;;;;;;5024974;28;20224;-73
2022/05/31 13:36:53;;;;;;;4.93;1.80;;;;;;;;;;5022045;28;20207;-74
2022/05/31 13:39:20;;;;;;;7.27;2.00;;;;;;;;;;5020957;28;20302;-73
2022/05/31 13:41:50;;;;;;;13.00;1.90;;;;;;;;;;5024766;28;20204;-74
2022/05/31 13:44:20;;;;;;;12.33;2.47;;;;;;;;;;5024365;28;20223;-75
2022/05/31 13:46:49;;;;;;;6.10;2.30;;;;;;;;;;5024703;28;20576;-75
2022/05/31 13:49:17;;;;;;;6.80;1.80;;;;;;;;;;5020563;28;20196;-75
2022/05/31 13:51:50;;;;;;;6.50;2.00;;;;;;;;;;5022072;28;20228;-75
2022/05/31 13:54:19;;;;;;;4.90;1.60;;;;;;;;;;5021948;28;20239;-76
2022/05/31 13:56:47;;;;;;;5.97;3.10;;;;;;;;;;5025085;28;20204;-75
2022/05/31 13:59:30;;;;;;;3.97;2.00;;;;;;;;;;5022458;28;20215;-76
2022/05/31 14:01:57;;;;;;;8.23;1.80;;;;;;;;;;5025289;28;20243;-76
2022/05/31 14:04:29;;;;;;;5.03;2.00;;;;;;;;;;5023896;28;20670;-76
2022/05/31 14:06:58;;;;;;;7.87;1.97;;;;;;;;;;5027772;28;20684;-76
2022/05/31 14:09:27;;;;;;;3.83;1.80;;;;;;;;;;5023413;28;20207;-76
2022/05/31 14:11:57;;;;;;;3.33;1.57;;;;;;;;;;5022238;28;20592;-76
2022/05/31 14:14:29;;;;;;;3.50;1.70;;;;;;;;;;5019078;28;20322;-76
2022/05/31 14:16:57;;;;;;;2.73;1.43;;;;;;;;;;5026934;28;20199;-76
2022/05/31 14:19:25;;;;;;;4.83;1.70;;;;;;;;;;5023697;28;20640;-76
2022/05/31 14:21:54;;;;;;;2.90;1.50;;;;;;;;;;5021810;28;20211;-76
2022/05/31 14:24:23;;;;;;;4.97;1.53;;;;;;;;;;5022751;28;20231;-74
2022/05/31 14:26:52;;;;;;;3.13;1.40;;;;;;;;;;5023116;28;20582;-74
2022/05/31 14:29:26;;;;;;;4.90;1.70;;;;;;;;;;5021909;28;20284;-74
2022/05/31 14:32:09;;;;;;;2.67;1.50;;;;;;;;;;5020405;28;20251;-75
2022/05/31 14:34:39;;;;;;;2.70;1.10;;;;;;;;;;5021806;28;20290;-75
2022/05/31 14:37:08;;;;;;;3.50;1.40;;;;;;;;;;5022419;28;20294;-75
2022/05/31 14:39:35;;;;;;;4.50;1.70;;;;;;;;;;5023709;28;20371;-75
2022/05/31 14:42:04;;;;;;;2.13;1.40;;;;;;;;;;5026130;28;20269;-76
2022/05/31 14:44:41;;;;;;;3.07;1.40;;;;;;;;;;5023045;28;20227;-75
2022/05/31 14:47:15;;;;;;;3.37;1.40;;;;;;;;;;5019460;28;20250;-76
2022/05/31 14:49:43;;;;;;;5.40;1.60;;;;;;;;;;5024526;28;20822;-76
2022/05/31 14:52:34;;;;;;;3.30;1.50;;;;;;;;;;5015299;28;20868;-76
2022/05/31 14:55:09;;;;;;;5.90;1.57;;;;;;;;;;4999315;28;20769;-76
2022/05/31 15:00:22;;;;;;;4.57;1.40;;;;;;;;;;5021871;28;20706;-78
2022/05/31 15:02:51;;;;;;;3.43;1.70;;;;;;;;;;5021602;28;20287;-78
2022/05/31 15:05:30;;;;;;;5.87;1.80;;;;;;;;;;5029150;28;20227;-74
2022/05/31 15:07:58;;;;;;;2.50;1.60;;;;;;;;;;5018223;28;20558;-74
2022/05/31 15:10:27;;;;;;;3.73;1.70;;;;;;;;;;5021504;28;20299;-74
2022/05/31 15:23:57;;;;;;;2.07;1.50;;;;;;;;;;4992444;28;20231;-76
2022/05/31 15:26:24;;;;;;;4.63;1.73;;;;;;;;;;5020259;28;20257;-76
2022/05/31 15:28:51;;;;;;;2.90;1.57;;;;;;;;;;5021575;28;20215;-76
2022/05/31 15:31:30;;;;;;;3.00;1.60;;;;;;;;;;5018887;28;20631;-76
2022/05/31 15:33:58;;;;;;;2.57;1.87;;;;;;;;;;5019644;28;20215;-76
2022/05/31 15:36:26;;;;;;;4.90;1.60;;;;;;;;;;5023601;28;20303;-77
2022/05/31 15:38:54;;;;;;;5.43;1.70;;;;;;;;;;5030381;28;20200;-75
2022/05/31 15:41:22;;;;;;;4.93;1.80;;;;;;;;;;5020850;28;20204;-74
2022/05/31 15:43:55;;;;;;;3.77;1.50;;;;;;;;;;5017880;28;20216;-74
2022/05/31 15:46:25;;;;;;;5.10;1.63;;;;;;;;;;5023257;28;20211;-74
2022/05/31 15:48:52;;;;;;;6.37;1.60;;;;;;;;;;5025010;28;20286;-75
2022/05/31 15:51:23;;;;;;;4.07;1.20;;;;;;;;;;5024719;28;20346;-75
2022/05/31 15:53:52;;;;;;;3.13;1.50;;;;;;;;;;5024813;28;20301;-75
2022/05/31 15:56:20;;;;;;;3.20;1.70;;;;;;;;;;5026579;28;20660;-75
2022/05/31 15:58:47;;;;;;;2.10;1.37;;;;;;;;;;5025040;28;20231;-76